Aviation Digital Data Service (ADDS)

Output produced by METARs form (1258 UTC 19 January 2019)
found at http://www.aviationweather.gov/metar/data/
 
Forecast for: CYQK (KENORA AIRPORT , ON, CA)
Text: TAF CYQK 190738Z 1908/1920 VRB03KT P6SM SCT140
Forecast period: 0800 to 1200 UTC 19 January 2019
Forecast type: FROM: standard forecast or significant change
Winds: variable direction winds at 3 MPH (3 knots; 1.5 m/s)
Visibility: 6 or more miles 10+ km)
Ceiling: at least 12,000 feet AGL
Clouds: scattered clouds at 14000 feet AGL
Weather: no significant weather forecast for this period
Text: BECMG 1912/1914 26006KT RMK NXT FCST BY 191400Z
Forecast period: 1200 to 2000 UTC 19 January 2019
Forecast type: BECOMING: Conditions expected to become as follows by 1400 UTC 19 January 2019
Winds: from the W (260 degrees) at 7 MPH (6 knots; 3.1 m/s)
Visibility: 6 or more miles 10+ km)
Ceiling: at least 12,000 feet AGL
Clouds: scattered clouds at 14000 feet AGL
Weather: no significant weather forecast for this period